Etusivu
METAR-TAF:

METAR-TAF

Lentoasemat :

Pohnpei, Mikronesia

Leveyspiiri: 06-59N, Pituuspiiri: 158-12E, korkeus merenpinnasta: 2 m

Tämänhetkinen sää

Tämä raportti tehtiin 7 tuntia ja 18 minuuttia sitten, kello 07.58 UTC
tyyntä
Lämpötila 29°C
Kosteus 79%
Ilmanpaine 1009 hPa
Näkyvyys: 24.1 km
Hajonneita pilviä 1800 ft:n korkeudessa
Hajonneita pilviä 30000 ft:n korkeudessa

METAR: PTPN 250758Z 00000KT 15SM BKN018 BKN300 29/25 A2980 RMK LAST

Aika: 02:16 (15:16 UTC)

Sääennuste

Tämä raportti tehtiin 9 tuntia ja 41 minuuttia sitten, kello 05.35 UTC
Ennuste voimassa 25. päivästä klo 06 UTC - 26. päivään klo 06 UTC
Tuuli 5 kn eri suunnista
Näkyvyys: 10 km
Hajanaisia pilviä 1800 ft:n korkeudessa
Hajonneita pilviä 13000 ft:n korkeudessa
sadekuuroja näköpiirissä
Ajoittain
25. päivästä klo 06 UTC - 25. päivään klo 08 UTC
Hajonneita pilviä 1600 ft:n korkeudessa
heikkoja vesikuuroja

TAF: PTPN 250535Z 2506/2606 VRB05KT P6SM VCSH SCT018 BKN130 TEMPO 2506/2508 -SHRA BKN016

Säähavainnot ja -ennusteet yli 4000 lentoasemalta (METAR- ja TAF-raportit).

Käytössä olevat sääasemat on merkitty karttaan keltaisilla ja punaisilla pisteillä.

Aseta hiiri pisteen päälle nähdäksesi sääaseman nimen.

Klikkaa sitten nähdäksesi säähavainnot ja -ennusteet.

Kartan vaihtaminen: klikkaa mustalla rastilla varustettuja vihreitä pisteitä, niin voit zoomata sisään; viivalla varustettua vihreää pistettä, niin voit zoomata ulos tai vihreitä nuolia, niin pääset viereisille kartoille.


METAR-TAF: